createdAt,value
2023-02-26T00:02:46.610Z,85.71
2023-02-26T00:07:48.840Z,85.66
2023-02-26T00:12:51.239Z,85.66
2023-02-26T00:18:04.273Z,85.93
2023-02-26T00:23:06.978Z,85.45
2023-02-26T00:28:09.986Z,85.49
2023-02-26T00:33:12.352Z,85.42
2023-02-26T00:38:17.251Z,85.66
2023-02-26T00:43:27.327Z,85.37
2023-02-26T00:48:45.625Z,85.50
2023-02-26T00:53:55.665Z,85.34
2023-02-26T00:58:58.669Z,85.39
2023-02-26T01:04:01.093Z,85.47
2023-02-26T01:09:27.351Z,85.52
2023-02-26T01:14:32.382Z,85.44
2023-02-26T01:19:56.315Z,85.51
2023-02-26T01:25:05.923Z,85.37
2023-02-26T01:30:09.035Z,85.30
2023-02-26T01:35:24.922Z,85.59
2023-02-26T01:40:35.277Z,85.42
2023-02-26T01:45:56.305Z,85.61
2023-02-26T01:50:58.865Z,85.43
2023-02-26T01:56:05.246Z,85.34
2023-02-26T02:01:08.117Z,85.49
2023-02-26T02:06:16.041Z,85.60
2023-02-26T02:11:18.285Z,85.57
2023-02-26T02:16:37.233Z,85.54
2023-02-26T02:21:44.967Z,85.46
2023-02-26T02:26:59.814Z,85.67
2023-02-26T02:32:15.070Z,85.56
2023-02-26T02:37:25.259Z,85.73
2023-02-26T02:42:38.336Z,85.54
2023-02-26T02:47:42.401Z,85.69
2023-02-26T02:53:09.501Z,85.87
2023-02-26T02:58:21.807Z,85.58
2023-02-26T03:03:37.806Z,85.92
2023-02-26T03:08:41.735Z,85.56
2023-02-26T03:13:45.269Z,85.79
2023-02-26T03:19:21.692Z,85.72
2023-02-26T03:24:29.881Z,85.85
2023-02-26T03:29:53.609Z,86.10
2023-02-26T03:35:03.403Z,85.77
2023-02-26T03:40:15.320Z,85.77
2023-02-26T03:45:22.677Z,85.90
2023-02-26T03:50:46.295Z,86.02
2023-02-26T03:55:58.358Z,86.06
2023-02-26T04:01:26.861Z,85.49
2023-02-26T04:06:29.842Z,85.80
2023-02-26T04:11:33.050Z,85.58
2023-02-26T04:16:35.463Z,85.86
2023-02-26T04:21:37.789Z,85.82
2023-02-26T04:26:41.570Z,85.93
2023-02-26T04:31:43.933Z,86.08
2023-02-26T04:36:46.718Z,85.82
2023-02-26T04:41:49.163Z,85.86
2023-02-26T04:46:51.410Z,86.09
2023-02-26T04:51:53.857Z,86.10
2023-02-26T04:56:57.225Z,86.22
2023-02-26T05:02:01.847Z,86.17
2023-02-26T05:07:04.329Z,86.08
2023-02-26T05:12:06.502Z,86.18
2023-02-26T05:17:09.331Z,85.91
2023-02-26T05:22:11.597Z,85.83
2023-02-26T05:27:15.233Z,86.00
2023-02-26T05:32:21.416Z,85.98
2023-02-26T05:37:23.922Z,85.98
2023-02-26T05:42:26.203Z,85.96
2023-02-26T05:47:28.402Z,86.09
2023-02-26T05:52:30.669Z,86.12
2023-02-26T05:57:33.049Z,86.04
2023-02-26T06:02:35.278Z,85.92
2023-02-26T06:07:39.920Z,86.09
2023-02-26T06:12:42.234Z,85.87
2023-02-26T06:17:50.621Z,86.06
2023-02-26T06:22:58.730Z,85.99
2023-02-26T06:28:00.957Z,85.86
2023-02-26T06:33:03.243Z,85.93
2023-02-26T06:38:05.555Z,85.86
2023-02-26T06:43:08.119Z,85.67
2023-02-26T06:48:10.737Z,85.72
2023-02-26T06:53:14.638Z,85.70
2023-02-26T06:58:17.064Z,85.88
2023-02-26T07:03:20.145Z,85.51
2023-02-26T07:08:22.513Z,85.44
2023-02-26T07:13:24.870Z,85.31
2023-02-26T07:18:27.098Z,85.31
2023-02-26T07:23:32.525Z,85.34
2023-02-26T07:28:35.175Z,85.28
2023-02-26T07:33:39.054Z,85.08
2023-02-26T07:38:41.437Z,84.92
2023-02-26T07:43:45.017Z,84.88
2023-02-26T07:48:47.498Z,84.85
2023-02-26T07:53:50.709Z,84.79
2023-02-26T07:58:53.261Z,84.72
2023-02-26T08:03:55.626Z,84.71
2023-02-26T08:09:00.550Z,84.33
2023-02-26T08:14:03.744Z,84.13
2023-02-26T08:19:06.274Z,84.00
2023-02-26T08:24:08.524Z,83.66
2023-02-26T08:29:11.091Z,83.75
2023-02-26T08:34:13.893Z,83.61
2023-02-26T08:39:16.279Z,83.59
2023-02-26T08:44:18.883Z,83.61
2023-02-26T08:49:21.094Z,83.64
2023-02-26T08:54:23.717Z,83.53
2023-02-26T08:59:26.176Z,83.21
2023-02-26T09:04:31.019Z,83.10
2023-02-26T09:09:33.672Z,82.82
2023-02-26T09:14:36.038Z,82.65
2023-02-26T09:19:38.339Z,82.62
2023-02-26T09:24:40.724Z,82.43
2023-02-26T09:29:43.119Z,82.38
2023-02-26T09:34:45.349Z,82.17
2023-02-26T09:39:47.700Z,82.12
2023-02-26T09:44:51.677Z,81.87
2023-02-26T09:50:06.313Z,81.84
2023-02-26T09:55:16.885Z,81.79
2023-02-26T10:00:34.780Z,81.74
2023-02-26T10:06:05.172Z,81.69
2023-02-26T10:11:18.322Z,81.79
2023-02-26T10:16:23.930Z,81.63
2023-02-26T10:21:34.501Z,81.41
2023-02-26T10:26:50.873Z,81.17
2023-02-26T10:32:21.318Z,80.92
2023-02-26T10:37:48.589Z,80.85
2023-02-26T10:42:59.013Z,80.88
2023-02-26T10:48:22.642Z,80.50
2023-02-26T10:53:27.606Z,80.52
2023-02-26T10:58:29.832Z,80.48
2023-02-26T11:03:39.561Z,80.10
2023-02-26T11:08:45.601Z,80.09
2023-02-26T11:13:47.820Z,80.15
2023-02-26T11:18:59.410Z,79.79
2023-02-26T11:24:22.494Z,79.33
2023-02-26T11:29:26.548Z,79.46
2023-02-26T11:34:30.187Z,79.09
2023-02-26T11:39:35.020Z,78.90
2023-02-26T11:44:43.622Z,78.47
2023-02-26T11:49:51.800Z,78.53
2023-02-26T11:55:01.598Z,78.82
2023-02-26T12:00:19.500Z,78.91
2023-02-26T12:05:22.895Z,79.46
2023-02-26T12:10:40.809Z,79.80
2023-02-26T12:16:04.289Z,79.85
2023-02-26T12:21:17.392Z,80.16
2023-02-26T12:26:53.957Z,80.26
2023-02-26T12:32:25.774Z,80.32
2023-02-26T12:38:02.998Z,80.47
2023-02-26T12:43:17.173Z,80.31
2023-02-26T12:48:41.399Z,80.00
2023-02-26T12:53:55.706Z,79.79
2023-02-26T12:59:07.937Z,79.55
2023-02-26T13:04:27.530Z,78.99
2023-02-26T13:09:34.731Z,78.66
2023-02-26T13:14:42.172Z,78.22
2023-02-26T13:19:54.288Z,77.55
2023-02-26T13:25:34.112Z,76.33
2023-02-26T13:30:43.744Z,76.57
2023-02-26T13:35:46.362Z,77.35
2023-02-26T13:40:58.699Z,76.50
2023-02-26T13:46:25.225Z,75.22
2023-02-26T13:51:36.456Z,75.69
2023-02-26T13:56:38.639Z,75.36
2023-02-26T14:01:46.878Z,74.85
2023-02-26T14:07:05.656Z,74.62
2023-02-26T14:12:13.677Z,74.99
2023-02-26T14:17:15.904Z,74.92
2023-02-26T14:22:46.618Z,73.82
2023-02-26T14:27:49.801Z,74.94
2023-02-26T14:32:58.316Z,74.04
2023-02-26T14:38:04.714Z,73.85
2023-02-26T14:43:11.192Z,73.87
2023-02-26T14:48:16.244Z,74.03
2023-02-26T14:53:34.253Z,73.24
2023-02-26T14:58:52.592Z,74.10
2023-02-26T15:04:05.171Z,74.03
2023-02-26T15:09:23.593Z,74.15
2023-02-26T15:14:47.142Z,74.62
2023-02-26T15:19:55.100Z,74.81
2023-02-26T15:24:59.205Z,75.14
2023-02-26T15:30:21.243Z,75.46
2023-02-26T15:35:24.343Z,75.67
2023-02-26T15:40:29.592Z,76.00
2023-02-26T15:45:38.321Z,76.26
2023-02-26T15:50:43.917Z,76.65
2023-02-26T15:55:51.347Z,77.01
2023-02-26T16:00:55.158Z,77.10
2023-02-26T16:05:58.782Z,77.16
2023-02-26T16:11:01.634Z,77.08
2023-02-26T16:16:18.495Z,76.57
2023-02-26T16:21:41.027Z,75.64
2023-02-26T16:27:14.535Z,75.33
2023-02-26T16:32:20.612Z,75.56
2023-02-26T16:37:29.081Z,74.70
2023-02-26T16:42:55.453Z,74.03
2023-02-26T16:47:59.282Z,74.58
2023-02-26T16:53:04.589Z,74.39
2023-02-26T16:58:09.447Z,74.09
2023-02-26T17:03:18.838Z,74.14
2023-02-26T17:08:24.480Z,74.14
2023-02-26T17:13:32.514Z,73.37
2023-02-26T17:18:34.729Z,73.61
2023-02-26T17:23:38.364Z,73.36
2023-02-26T17:28:44.039Z,72.63
2023-02-26T17:33:49.748Z,73.02
2023-02-26T17:38:59.071Z,73.15
2023-02-26T17:44:01.662Z,72.88
2023-02-26T17:49:05.270Z,72.79
2023-02-26T17:54:07.681Z,72.62
2023-02-26T17:59:10.040Z,72.67
2023-02-26T18:04:16.970Z,72.38
2023-02-26T18:09:19.645Z,72.55
2023-02-26T18:14:26.819Z,72.65
2023-02-26T18:19:32.083Z,72.92
2023-02-26T18:24:35.414Z,72.71
2023-02-26T18:29:40.873Z,72.59
2023-02-26T18:34:43.375Z,72.81
2023-02-26T18:39:46.183Z,72.57
2023-02-26T18:44:49.271Z,72.24
2023-02-26T18:49:52.236Z,72.48
2023-02-26T18:54:54.455Z,72.72
2023-02-26T19:00:00.804Z,72.82
2023-02-26T19:05:03.101Z,72.48
2023-02-26T19:10:08.321Z,72.47
2023-02-26T19:15:12.997Z,72.33
2023-02-26T19:20:15.257Z,72.20
2023-02-26T19:25:24.547Z,72.74
2023-02-26T19:30:27.267Z,72.99
2023-02-26T19:35:33.701Z,72.83
2023-02-26T19:40:35.908Z,72.80
2023-02-26T19:45:38.106Z,72.79
2023-02-26T19:50:40.571Z,72.65
2023-02-26T19:55:43.263Z,72.85
2023-02-26T20:00:45.769Z,73.02
2023-02-26T20:05:48.181Z,72.90
2023-02-26T20:10:50.877Z,73.16
2023-02-26T20:15:53.689Z,73.18
2023-02-26T20:20:59.861Z,73.03
2023-02-26T20:26:24.490Z,72.48
2023-02-26T20:31:27.171Z,72.61
2023-02-26T20:36:29.612Z,72.71
2023-02-26T20:41:32.115Z,72.94
2023-02-26T20:46:36.146Z,72.71
2023-02-26T20:51:40.450Z,72.70
2023-02-26T20:56:42.785Z,72.86
2023-02-26T21:01:48.941Z,72.91
2023-02-26T21:06:51.495Z,73.01
2023-02-26T21:11:54.268Z,73.14
2023-02-26T21:16:59.261Z,72.87
2023-02-26T21:22:01.608Z,73.06
2023-02-26T21:27:03.936Z,73.23
2023-02-26T21:32:07.263Z,73.22
2023-02-26T21:37:11.274Z,73.15
2023-02-26T21:42:16.569Z,73.02
2023-02-26T21:47:20.224Z,73.27
2023-02-26T21:52:23.191Z,73.33
2023-02-26T21:57:26.302Z,73.30
2023-02-26T22:02:30.677Z,73.07
2023-02-26T22:07:33.273Z,73.14
2023-02-26T22:12:35.426Z,73.16
2023-02-26T22:17:37.716Z,73.27
2023-02-26T22:22:40.220Z,73.36
2023-02-26T22:27:42.285Z,73.28
2023-02-26T22:32:44.381Z,73.31
2023-02-26T22:37:46.504Z,73.31
2023-02-26T22:42:49.236Z,73.24
2023-02-26T22:47:51.406Z,73.29
2023-02-26T22:52:53.586Z,73.35
2023-02-26T22:57:55.750Z,73.42
2023-02-26T23:02:57.937Z,73.27
2023-02-26T23:08:00.033Z,73.03
2023-02-26T23:13:03.279Z,73.04
2023-02-26T23:18:05.445Z,73.23
2023-02-26T23:23:07.696Z,73.17
2023-02-26T23:28:10.180Z,73.33
2023-02-26T23:33:12.854Z,73.18
2023-02-26T23:38:33.440Z,73.29
2023-02-26T23:43:35.717Z,73.30
2023-02-26T23:48:37.960Z,73.06
2023-02-26T23:53:40.202Z,72.88
2023-02-26T23:58:42.442Z,72.79
